Time;durP1;ratioP1;P1;durP2;ratioP2;P2;SDS_P1;SDS_P2;PMS_P1;PMS_P2;Temp;Humidity;BMP_temperature;BMP_pressure;BME280_temperature;BME280_humidity;BME280_pressure;Samples;Min_cycle;Max_cycle;Signal;HPM_P1;HPM_P2
2022/03/05 00:00:20;;;;;;;;;;;23.10;47.90;;;;;;5037112;28;940;-37
2022/03/05 00:02:47;;;;;;;;;;;23.10;47.70;;;;;;5037621;28;1004;-38
2022/03/05 00:05:14;;;;;;;;;;;23.00;47.70;;;;;;5037018;28;991;-42
2022/03/05 00:07:41;;;;;;;;;;;23.10;47.80;;;;;;5036502;28;1329;-42
2022/03/05 00:10:10;;;;;;;;;;;23.00;47.90;;;;;;5036749;28;881;-43
2022/03/05 00:12:37;;;;;;;;;;;22.90;48.00;;;;;;5036857;28;1966;-41
2022/03/05 00:15:04;;;;;;;;;;;22.90;48.00;;;;;;5036620;28;1793;-41
2022/03/05 00:17:31;;;;;;;;;;;22.80;48.10;;;;;;5037196;28;1018;-41
2022/03/05 00:19:58;;;;;;;;;;;22.90;48.40;;;;;;5036359;28;960;-41
2022/03/05 00:22:25;;;;;;;;;;;22.90;48.40;;;;;;5036809;28;1026;-42
2022/03/05 00:24:51;;;;;;;;;;;22.80;48.50;;;;;;5036318;28;945;-42
2022/03/05 00:27:20;;;;;;;;;;;22.80;48.40;;;;;;5037244;28;984;-43
2022/03/05 00:29:46;;;;;;;;;;;22.70;48.40;;;;;;5036359;28;945;-41
2022/03/05 00:32:13;;;;;;;;;;;22.70;48.40;;;;;;5036746;28;1981;-41
2022/03/05 00:34:40;;;;;;;;;;;22.70;48.40;;;;;;5036868;28;1400;-42
2022/03/05 00:37:08;;;;;;;;;;;22.70;48.40;;;;;;5036518;28;1059;-42
2022/03/05 00:39:34;;;;;;;;;;;22.70;48.40;;;;;;5036699;28;1023;-44
2022/03/05 00:42:01;;;;;;;;;;;22.70;48.50;;;;;;5036696;28;1080;-44
2022/03/05 00:44:29;;;;;;;;;;;22.70;48.60;;;;;;5036617;28;939;-43
2022/03/05 00:46:56;;;;;;;;;;;22.70;48.60;;;;;;5036724;28;968;-43
2022/03/05 00:49:23;;;;;;;;;;;22.70;48.60;;;;;;5036490;28;1039;-43
2022/03/05 00:51:49;;;;;;;;;;;22.70;48.60;;;;;;5036294;28;1020;-44
2022/03/05 00:54:16;;;;;;;;;;;22.70;48.60;;;;;;5036969;28;1949;-44
2022/03/05 00:56:43;;;;;;;;;;;22.70;48.70;;;;;;5036503;28;941;-45
2022/03/05 00:59:10;;;;;;;;;;;22.60;48.80;;;;;;5036584;28;1016;-44
2022/03/05 01:01:38;;;;;;;;;;;22.60;48.80;;;;;;5036634;28;1307;-44
2022/03/05 01:04:05;;;;;;;;;;;22.60;48.80;;;;;;5036447;28;1147;-43
2022/03/05 01:06:32;;;;;;;;;;;22.60;48.80;;;;;;5035716;28;1127;-44
2022/03/05 01:08:58;;;;;;;;;;;22.60;48.90;;;;;;5036597;28;936;-44
2022/03/05 01:11:25;;;;;;;;;;;22.50;48.90;;;;;;5036176;28;952;-44
2022/03/05 01:13:52;;;;;;;;;;;22.50;48.90;;;;;;5035365;28;1902;-45
2022/03/05 01:16:19;;;;;;;;;;;22.50;48.90;;;;;;5035929;28;1119;-44
2022/03/05 01:18:47;;;;;;;;;;;22.50;48.90;;;;;;5036782;28;972;-44
2022/03/05 01:21:14;;;;;;;;;;;22.50;48.90;;;;;;5036016;28;905;-39
2022/03/05 01:23:41;;;;;;;;;;;22.50;49.00;;;;;;5036429;28;924;-39
2022/03/05 01:26:08;;;;;;;;;;;22.50;48.90;;;;;;5036043;28;996;-45
2022/03/05 01:28:35;;;;;;;;;;;22.40;49.00;;;;;;5036212;28;1381;-40
2022/03/05 01:31:01;;;;;;;;;;;22.50;49.00;;;;;;5036064;27;941;-39
2022/03/05 01:33:29;;;;;;;;;;;22.50;49.00;;;;;;5036445;28;1976;-44
2022/03/05 01:35:57;;;;;;;;;;;22.50;49.00;;;;;;5036320;28;960;-46
2022/03/05 01:38:23;;;;;;;;;;;22.50;49.00;;;;;;5035775;28;1030;-44
2022/03/05 01:40:51;;;;;;;;;;;22.40;49.00;;;;;;5035718;28;932;-43
2022/03/05 01:43:18;;;;;;;;;;;22.40;49.00;;;;;;5035962;28;1009;-43
2022/03/05 01:45:44;;;;;;;;;;;22.40;49.00;;;;;;5035627;28;897;-43
2022/03/05 01:48:11;;;;;;;;;;;22.40;49.10;;;;;;5035696;28;1014;-43
2022/03/05 01:50:38;;;;;;;;;;;22.30;49.10;;;;;;5035463;28;945;-44
2022/03/05 01:53:06;;;;;;;;;;;22.30;49.10;;;;;;5034971;28;1898;-44
2022/03/05 01:55:33;;;;;;;;;;;22.40;49.20;;;;;;5035533;28;995;-44
2022/03/05 01:57:59;;;;;;;;;;;22.40;49.20;;;;;;5035876;28;996;-44
2022/03/05 02:00:26;;;;;;;;;;;22.30;49.20;;;;;;5036348;28;932;-42
2022/03/05 02:02:53;;;;;;;;;;;22.40;49.10;;;;;;5036498;28;972;-38
2022/03/05 02:05:20;;;;;;;;;;;22.30;49.10;;;;;;5035885;28;1015;-38
2022/03/05 02:07:47;;;;;;;;;;;22.30;49.10;;;;;;5034716;28;1122;-38
2022/03/05 02:10:15;;;;;;;;;;;22.30;49.10;;;;;;5034879;28;999;-39
2022/03/05 02:12:42;;;;;;;;;;;22.30;49.10;;;;;;5034724;28;1890;-38
2022/03/05 02:15:09;;;;;;;;;;;22.30;49.20;;;;;;5034481;28;1004;-38
2022/03/05 02:17:37;;;;;;;;;;;22.30;49.20;;;;;;5035042;28;976;-38
2022/03/05 02:20:04;;;;;;;;;;;22.30;49.20;;;;;;5038421;28;940;-40
2022/03/05 02:22:35;;;;;;;;;;;22.30;49.30;;;;;;5038249;28;1028;-40
2022/03/05 02:25:03;;;;;;;;;;;22.30;49.20;;;;;;5038524;28;936;-40
2022/03/05 02:27:30;;;;;;;;;;;22.30;49.20;;;;;;5038556;28;1056;-40
2022/03/05 02:29:57;;;;;;;;;;;22.30;49.20;;;;;;5038003;28;905;-40
2022/03/05 02:32:24;;;;;;;;;;;22.20;49.10;;;;;;5037841;28;924;-40
2022/03/05 02:34:51;;;;;;;;;;;22.20;49.10;;;;;;5038592;28;1901;-40
2022/03/05 02:37:18;;;;;;;;;;;22.20;49.10;;;;;;5038601;28;995;-39
2022/03/05 02:39:46;;;;;;;;;;;22.20;49.10;;;;;;5038120;28;1043;-39
2022/03/05 02:42:15;;;;;;;;;;;22.20;49.10;;;;;;5038500;28;1011;-38
2022/03/05 02:44:42;;;;;;;;;;;22.20;49.10;;;;;;5038805;27;1024;-39
2022/03/05 02:47:09;;;;;;;;;;;22.20;49.20;;;;;;5038340;28;1004;-38
2022/03/05 02:49:36;;;;;;;;;;;22.20;49.20;;;;;;5038646;28;1000;-38
2022/03/05 02:52:03;;;;;;;;;;;22.20;49.10;;;;;;5037994;28;988;-38
2022/03/05 02:54:30;;;;;;;;;;;22.20;49.20;;;;;;5038130;28;1910;-38
2022/03/05 02:56:58;;;;;;;;;;;22.10;49.10;;;;;;5038831;28;1345;-38
2022/03/05 02:59:25;;;;;;;;;;;22.10;49.20;;;;;;5038183;28;964;-38
2022/03/05 03:01:51;;;;;;;;;;;22.10;50.30;;;;;;5038435;28;933;-39
2022/03/05 03:04:18;;;;;;;;;;;22.10;49.20;;;;;;5038291;28;957;-38
2022/03/05 03:06:45;;;;;;;;;;;22.10;49.20;;;;;;5037807;28;1023;-38
2022/03/05 03:09:12;;;;;;;;;;;22.10;49.20;;;;;;5038488;27;1034;-38
2022/03/05 03:11:39;;;;;;;;;;;22.10;49.20;;;;;;5038462;28;992;-38
2022/03/05 03:14:07;;;;;;;;;;;22.20;49.10;;;;;;5038803;28;1988;-38
2022/03/05 03:16:34;;;;;;;;;;;22.20;49.20;;;;;;5037857;28;980;-38
2022/03/05 03:19:00;;;;;;;;;;;22.10;49.20;;;;;;5038110;28;1123;-38
2022/03/05 03:21:27;;;;;;;;;;;22.10;49.30;;;;;;5037604;28;974;-38
2022/03/05 03:27:07;;;;;;;;;;;22.00;49.40;;;;;;5037666;28;1017;-38
2022/03/05 03:29:35;;;;;;;;;;;22.00;49.40;;;;;;5036770;28;1131;-38
2022/03/05 03:32:03;;;;;;;;;;;22.00;49.40;;;;;;5037098;28;1003;-39
2022/03/05 03:34:29;;;;;;;;;;;22.00;49.40;;;;;;5036878;28;1910;-39
2022/03/05 03:36:56;;;;;;;;;;;22.00;49.40;;;;;;5037145;28;1008;-39
2022/03/05 03:39:23;;;;;;;;;;;22.00;49.40;;;;;;5037204;28;1023;-40
2022/03/05 03:41:49;;;;;;;;;;;22.00;49.40;;;;;;5037164;28;1088;-40
2022/03/05 03:44:16;;;;;;;;;;;22.00;49.20;;;;;;5037484;28;969;-39
2022/03/05 03:46:44;;;;;;;;;;;22.00;49.20;;;;;;5037372;28;964;-39
2022/03/05 03:49:11;;;;;;;;;;;22.00;49.30;;;;;;5037765;28;916;-39
2022/03/05 03:51:38;;;;;;;;;;;22.00;49.30;;;;;;5038133;28;1013;-39
2022/03/05 03:54:04;;;;;;;;;;;22.00;49.30;;;;;;5037973;28;1906;-39
2022/03/05 03:56:31;;;;;;;;;;;22.00;49.20;;;;;;5037516;28;1020;-39
2022/03/05 03:58:58;;;;;;;;;;;22.00;49.30;;;;;;5037713;28;984;-39
2022/03/05 04:01:25;;;;;;;;;;;22.00;49.20;;;;;;5037376;27;1769;-39
2022/03/05 04:03:53;;;;;;;;;;;22.00;49.20;;;;;;5037575;28;1027;-39
2022/03/05 04:06:20;;;;;;;;;;;22.00;49.20;;;;;;5037124;28;1023;-39
2022/03/05 04:08:46;;;;;;;;;;;21.90;49.20;;;;;;5037373;28;1121;-39
2022/03/05 04:11:13;;;;;;;;;;;22.00;49.20;;;;;;5037139;28;984;-39
2022/03/05 04:13:40;;;;;;;;;;;21.90;49.20;;;;;;5037364;28;1914;-39
2022/03/05 04:16:07;;;;;;;;;;;22.00;49.20;;;;;;5037130;28;1919;-39
2022/03/05 04:18:34;;;;;;;;;;;21.90;49.20;;;;;;5037257;28;937;-39
2022/03/05 04:21:03;;;;;;;;;;;21.90;49.20;;;;;;5037107;28;1020;-39
2022/03/05 04:23:29;;;;;;;;;;;21.90;49.20;;;;;;5037004;28;988;-39
2022/03/05 04:25:56;;;;;;;;;;;21.90;49.30;;;;;;5037047;28;1019;-42
2022/03/05 04:28:23;;;;;;;;;;;21.90;49.20;;;;;;5037552;28;992;-41
2022/03/05 04:30:49;;;;;;;;;;;21.90;49.10;;;;;;5036793;28;984;-41
2022/03/05 04:33:16;;;;;;;;;;;22.00;50.20;;;;;;5035717;28;1898;-41
2022/03/05 04:35:43;;;;;;;;;;;22.00;49.20;;;;;;5035783;28;1004;-41
2022/03/05 04:38:11;;;;;;;;;;;22.00;49.00;;;;;;5036031;28;1007;-41
2022/03/05 04:40:38;;;;;;;;;;;22.00;49.20;;;;;;5035145;28;992;-41
2022/03/05 04:43:05;;;;;;;;;;;21.90;49.10;;;;;;5036168;28;1008;-41
2022/03/05 04:45:31;;;;;;;;;;;21.90;50.40;;;;;;5036148;28;999;-43
2022/03/05 04:47:58;;;;;;;;;;;21.90;49.10;;;;;;5035701;27;1005;-41
2022/03/05 04:50:25;;;;;;;;;;;21.90;49.10;;;;;;5035520;28;1003;-41
2022/03/05 04:52:52;;;;;;;;;;;21.90;49.10;;;;;;5036141;28;1004;-41
2022/03/05 04:55:20;;;;;;;;;;;21.90;49.10;;;;;;5036272;28;1898;-41
2022/03/05 04:57:47;;;;;;;;;;;21.90;49.10;;;;;;5036484;28;1019;-43
2022/03/05 05:00:14;;;;;;;;;;;21.90;49.10;;;;;;5035641;28;975;-41
2022/03/05 05:02:41;;;;;;;;;;;21.80;49.00;;;;;;5035170;28;1007;-41
2022/03/05 05:05:07;;;;;;;;;;;21.80;49.10;;;;;;5036011;28;1042;-41
2022/03/05 05:07:34;;;;;;;;;;;21.80;49.10;;;;;;5034250;28;1138;-38
2022/03/05 05:10:01;;;;;;;;;;;21.80;49.00;;;;;;5034531;28;964;-38
2022/03/05 05:12:29;;;;;;;;;;;21.80;49.10;;;;;;5031906;28;1011;-38
2022/03/05 05:14:56;;;;;;;;;;;21.80;49.10;;;;;;5034706;28;1910;-38
2022/03/05 05:17:23;;;;;;;;;;;21.80;49.10;;;;;;5035079;28;1018;-38
2022/03/05 05:19:49;;;;;;;;;;;21.80;49.10;;;;;;5034358;28;995;-37
2022/03/05 05:22:16;;;;;;;;;;;21.80;49.10;;;;;;5035031;28;861;-38
2022/03/05 05:24:43;;;;;;;;;;;21.80;49.00;;;;;;5034919;28;956;-38
2022/03/05 05:27:09;;;;;;;;;;;21.80;49.00;;;;;;5035054;28;982;-38
2022/03/05 05:29:37;;;;;;;;;;;21.70;49.00;;;;;;5034639;28;937;-38
2022/03/05 05:32:05;;;;;;;;;;;21.80;49.00;;;;;;5034635;28;925;-39
2022/03/05 05:34:31;;;;;;;;;;;21.70;49.00;;;;;;5035568;28;1981;-39
2022/03/05 05:36:58;;;;;;;;;;;21.70;49.10;;;;;;5036206;28;1020;-39
2022/03/05 05:39:25;;;;;;;;;;;21.70;49.00;;;;;;5036082;28;1115;-39
2022/03/05 05:41:51;;;;;;;;;;;21.70;49.10;;;;;;5035471;28;1007;-39
2022/03/05 05:44:18;;;;;;;;;;;21.80;49.20;;;;;;5034891;28;949;-39
2022/03/05 05:46:46;;;;;;;;;;;21.80;49.20;;;;;;5035336;28;1023;-40
2022/03/05 05:49:13;;;;;;;;;;;21.80;49.20;;;;;;5034431;28;1185;-40
2022/03/05 05:51:39;;;;;;;;;;;21.70;49.10;;;;;;5034392;28;945;-40
2022/03/05 05:54:07;;;;;;;;;;;21.70;49.10;;;;;;5038126;28;1972;-40
2022/03/05 05:56:34;;;;;;;;;;;21.70;49.10;;;;;;5038489;28;968;-40
2022/03/05 05:59:01;;;;;;;;;;;21.70;49.10;;;;;;5038178;28;1128;-41
2022/03/05 06:01:28;;;;;;;;;;;21.70;49.10;;;;;;5038937;28;1003;-39
2022/03/05 06:03:56;;;;;;;;;;;21.70;49.10;;;;;;5039106;28;1204;-40
2022/03/05 06:06:23;;;;;;;;;;;21.70;49.10;;;;;;5038700;28;1006;-39
2022/03/05 06:08:50;;;;;;;;;;;21.70;49.10;;;;;;5037901;28;1042;-39
2022/03/05 06:11:17;;;;;;;;;;;21.70;49.00;;;;;;5037792;28;984;-40
2022/03/05 06:13:43;;;;;;;;;;;21.70;49.10;;;;;;5038193;28;1971;-40
2022/03/05 06:16:11;;;;;;;;;;;21.70;49.00;;;;;;5036726;28;1102;-39
2022/03/05 06:18:38;;;;;;;;;;;21.60;49.10;;;;;;5037576;28;1024;-41
2022/03/05 06:21:06;;;;;;;;;;;21.70;49.00;;;;;;5037753;28;1238;-40
2022/03/05 06:23:33;;;;;;;;;;;21.70;49.00;;;;;;5038158;28;1002;-40
2022/03/05 06:26:00;;;;;;;;;;;21.70;49.00;;;;;;5037974;28;964;-40
2022/03/05 06:28:27;;;;;;;;;;;21.60;48.90;;;;;;5038404;28;1015;-39
2022/03/05 06:30:54;;;;;;;;;;;21.60;49.00;;;;;;5037047;28;1317;-40
2022/03/05 06:33:20;;;;;;;;;;;21.60;49.00;;;;;;5038540;28;925;-40
2022/03/05 06:35:47;;;;;;;;;;;21.60;49.00;;;;;;5037919;28;1866;-40
2022/03/05 06:38:15;;;;;;;;;;;21.60;48.90;;;;;;5036967;28;1000;-40
2022/03/05 06:40:42;;;;;;;;;;;21.60;49.00;;;;;;5036548;28;1003;-39
2022/03/05 06:43:09;;;;;;;;;;;21.60;49.10;;;;;;5036479;28;1023;-39
2022/03/05 06:45:36;;;;;;;;;;;21.60;49.00;;;;;;5036094;28;1016;-39
2022/03/05 06:48:03;;;;;;;;;;;21.60;49.00;;;;;;5035859;28;961;-40
2022/03/05 06:50:30;;;;;;;;;;;21.60;50.10;;;;;;5036725;28;984;-39
2022/03/05 06:52:57;;;;;;;;;;;21.60;49.00;;;;;;5037355;28;953;-39
2022/03/05 06:55:25;;;;;;;;;;;21.50;49.00;;;;;;5036452;28;1902;-39
2022/03/05 06:57:52;;;;;;;;;;;21.60;48.90;;;;;;5036673;28;989;-39
2022/03/05 07:00:20;;;;;;;;;;;21.60;49.00;;;;;;5036204;28;940;-38
2022/03/05 07:02:47;;;;;;;;;;;21.50;49.00;;;;;;5036429;28;1028;-39
2022/03/05 07:05:14;;;;;;;;;;;21.50;49.00;;;;;;5036410;28;936;-39
2022/03/05 07:07:41;;;;;;;;;;;21.50;49.00;;;;;;5038041;28;1232;-39
2022/03/05 07:10:09;;;;;;;;;;;21.50;49.10;;;;;;5037165;28;1007;-39
2022/03/05 07:12:37;;;;;;;;;;;21.50;49.00;;;;;;5036813;27;2045;-40
2022/03/05 07:15:04;;;;;;;;;;;21.50;49.00;;;;;;5036852;28;1985;-39
2022/03/05 07:17:31;;;;;;;;;;;21.50;49.00;;;;;;5036769;28;1036;-39
2022/03/05 07:19:58;;;;;;;;;;;21.50;49.00;;;;;;5037273;28;976;-43
2022/03/05 07:22:25;;;;;;;;;;;21.50;49.00;;;;;;5036694;28;956;-43
2022/03/05 07:24:52;;;;;;;;;;;21.50;48.90;;;;;;5036449;27;1007;-43
2022/03/05 07:27:19;;;;;;;;;;;21.50;49.00;;;;;;5036595;28;932;-42
2022/03/05 07:29:47;;;;;;;;;;;21.50;48.90;;;;;;5036307;28;1000;-43
2022/03/05 07:32:14;;;;;;;;;;;21.50;49.00;;;;;;5035605;28;1014;-43
2022/03/05 07:34:41;;;;;;;;;;;21.50;49.00;;;;;;5036753;28;1902;-43
2022/03/05 07:37:07;;;;;;;;;;;21.50;49.00;;;;;;5037171;28;968;-41
2022/03/05 07:39:34;;;;;;;;;;;21.50;49.00;;;;;;5036098;28;992;-41
2022/03/05 07:42:01;;;;;;;;;;;21.50;48.90;;;;;;5036740;28;1008;-41
2022/03/05 07:44:28;;;;;;;;;;;21.50;49.00;;;;;;5036678;28;942;-40
2022/03/05 07:46:56;;;;;;;;;;;21.40;48.90;;;;;;5036340;28;1012;-38
2022/03/05 07:49:23;;;;;;;;;;;21.50;49.00;;;;;;5036751;28;1059;-38
2022/03/05 07:51:50;;;;;;;;;;;21.40;48.90;;;;;;5036059;28;991;-37
2022/03/05 07:54:17;;;;;;;;;;;21.40;48.90;;;;;;5035719;28;1906;-45
2022/03/05 07:56:44;;;;;;;;;;;21.40;48.90;;;;;;5035737;28;960;-45
2022/03/05 07:59:10;;;;;;;;;;;21.40;48.80;;;;;;5036060;28;960;-45
2022/03/05 08:01:37;;;;;;;;;;;21.50;49.00;;;;;;5035482;28;979;-45
2022/03/05 08:04:05;;;;;;;;;;;21.40;48.80;;;;;;5035095;28;1114;-43
2022/03/05 08:06:32;;;;;;;;;;;21.50;48.90;;;;;;5034942;28;1453;-45
2022/03/05 08:08:59;;;;;;;;;;;21.50;48.90;;;;;;5034933;28;1168;-41
2022/03/05 08:11:26;;;;;;;;;;;21.50;48.90;;;;;;5034896;28;1179;-44
2022/03/05 08:13:53;;;;;;;;;;;21.50;48.90;;;;;;5035606;28;980;-42
2022/03/05 08:16:20;;;;;;;;;;;21.50;48.90;;;;;;5033126;28;1981;-44
2022/03/05 08:18:46;;;;;;;;;;;21.40;48.80;;;;;;5034688;28;1031;-44
2022/03/05 08:21:15;;;;;;;;;;;21.40;48.70;;;;;;5034612;28;933;-41
2022/03/05 08:23:41;;;;;;;;;;;21.40;48.90;;;;;;5035243;28;1008;-43
2022/03/05 08:26:13;;;;;;;;;;;21.40;49.00;;;;;;5034975;28;943;-43
2022/03/05 08:28:39;;;;;;;;;;;21.40;49.00;;;;;;5035038;28;957;-43
2022/03/05 08:31:06;;;;;;;;;;;21.40;48.90;;;;;;5034690;28;917;-43
2022/03/05 08:33:33;;;;;;;;;;;21.40;48.90;;;;;;5034126;28;1368;-43
2022/03/05 08:36:00;;;;;;;;;;;21.50;49.10;;;;;;5034526;28;1914;-43
2022/03/05 08:38:31;;;;;;;;;;;21.50;49.30;;;;;;5035288;28;939;-43
2022/03/05 08:40:58;;;;;;;;;;;21.60;49.30;;;;;;5034673;28;952;-43
2022/03/05 08:43:25;;;;;;;;;;;21.60;49.10;;;;;;5034916;28;976;-45
2022/03/05 08:45:51;;;;;;;;;;;21.70;49.20;;;;;;5035017;28;998;-43
2022/03/05 08:48:19;;;;;;;;;;;21.80;49.10;;;;;;5034966;28;1587;-39
2022/03/05 08:50:45;;;;;;;;;;;21.90;48.90;;;;;;5034101;28;917;-39
2022/03/05 08:53:12;;;;;;;;;;;21.90;48.70;;;;;;5034875;28;925;-39
2022/03/05 08:55:41;;;;;;;;;;;22.00;48.70;;;;;;5034195;28;1898;-39
2022/03/05 08:58:07;;;;;;;;;;;22.00;48.80;;;;;;5034111;28;1110;-38
2022/03/05 09:00:34;;;;;;;;;;;22.00;48.70;;;;;;5033998;28;964;-39
2022/03/05 09:03:01;;;;;;;;;;;22.00;48.70;;;;;;5034663;28;980;-39
2022/03/05 09:05:28;;;;;;;;;;;22.00;48.90;;;;;;5035534;28;1023;-39
2022/03/05 09:07:55;;;;;;;;;;;22.10;49.00;;;;;;5035392;28;1125;-40
2022/03/05 09:10:23;;;;;;;;;;;22.00;50.10;;;;;;5035056;28;1174;-39
2022/03/05 09:12:51;;;;;;;;;;;22.10;49.10;;;;;;5034420;28;991;-40
2022/03/05 09:15:18;;;;;;;;;;;22.10;49.10;;;;;;5033971;28;1905;-41
2022/03/05 09:17:44;;;;;;;;;;;22.10;49.10;;;;;;5034503;28;987;-40
2022/03/05 09:20:12;;;;;;;;;;;22.10;49.00;;;;;;5033705;28;952;-45
2022/03/05 09:22:38;;;;;;;;;;;22.10;49.00;;;;;;5033439;28;1059;-40
2022/03/05 09:25:06;;;;;;;;;;;22.20;49.10;;;;;;5032277;28;868;-40
2022/03/05 09:27:33;;;;;;;;;;;22.20;49.10;;;;;;5030744;28;941;-40
2022/03/05 09:30:02;;;;;;;;;;;22.20;49.00;;;;;;5032271;28;980;-42
2022/03/05 09:32:29;;;;;;;;;;;22.20;49.20;;;;;;5030538;28;941;-39
2022/03/05 09:34:59;;;;;;;;;;;22.20;49.20;;;;;;5030460;28;1910;-38
2022/03/05 09:37:25;;;;;;;;;;;22.20;49.10;;;;;;5031689;28;1008;-39
2022/03/05 09:39:53;;;;;;;;;;;22.20;49.20;;;;;;5030227;28;912;-39
2022/03/05 09:42:20;;;;;;;;;;;22.20;49.20;;;;;;5029722;28;1036;-42
2022/03/05 09:44:47;;;;;;;;;;;22.30;49.80;;;;;;5030907;28;881;-42
2022/03/05 09:47:15;;;;;;;;;;;22.30;49.40;;;;;;5030848;28;1007;-43
2022/03/05 09:49:42;;;;;;;;;;;22.40;49.80;;;;;;5031347;28;1004;-42
2022/03/05 09:52:09;;;;;;;;;;;22.30;49.40;;;;;;5030916;28;980;-43
2022/03/05 09:54:36;;;;;;;;;;;22.40;49.60;;;;;;5030521;28;945;-41
2022/03/05 09:57:09;;;;;;;;;;;22.40;49.80;;;;;;5030782;28;1902;-41
2022/03/05 09:59:35;;;;;;;;;;;22.40;49.70;;;;;;5031170;28;975;-41
2022/03/05 10:02:03;;;;;;;;;;;22.50;50.00;;;;;;5031623;28;972;-40
2022/03/05 10:04:32;;;;;;;;;;;22.50;50.30;;;;;;5032824;28;1015;-41
2022/03/05 10:07:08;;;;;;;;;;;22.60;51.30;;;;;;5031250;28;1170;-42
2022/03/05 10:09:36;;;;;;;;;;;22.60;51.50;;;;;;5032309;28;994;-41
2022/03/05 10:12:23;;;;;;;;;;;22.60;50.90;;;;;;5032255;28;989;-41
2022/03/05 10:15:02;;;;;;;;;;;22.60;50.30;;;;;;5031373;28;919;-42
2022/03/05 10:17:29;;;;;;;;;;;22.50;50.30;;;;;;5031488;28;989;-42
2022/03/05 10:20:08;;;;;;;;;;;22.50;50.30;;;;;;5031994;28;979;-41
2022/03/05 10:22:34;;;;;;;;;;;22.50;50.20;;;;;;5030210;28;1015;-42
2022/03/05 10:25:01;;;;;;;;;;;22.50;50.50;;;;;;5030749;28;877;-42
2022/03/05 10:27:30;;;;;;;;;;;22.50;50.30;;;;;;5031636;28;1023;-43
2022/03/05 10:29:57;;;;;;;;;;;22.60;50.50;;;;;;5030891;28;849;-44
2022/03/05 10:32:25;;;;;;;;;;;22.60;50.20;;;;;;5032479;28;1192;-46
2022/03/05 10:34:55;;;;;;;;;;;22.60;50.10;;;;;;5020421;28;1208;-46
2022/03/05 10:37:24;;;;;;;;;;;22.50;50.10;;;;;;5013860;28;1902;-45
2022/03/05 10:39:52;;;;;;;;;;;22.60;50.20;;;;;;5028557;28;1208;-45
2022/03/05 10:42:19;;;;;;;;;;;22.50;50.20;;;;;;5120694;28;979;-45
2022/03/05 10:44:59;;;;;;;;;;;22.50;50.10;;;;;;5119896;28;1016;-45
2022/03/05 10:47:26;;;;;;;;;;;22.50;50.30;;;;;;5119601;28;937;-46
2022/03/05 10:49:52;;;;;;;;;;;22.50;50.20;;;;;;5119805;28;1061;-45
2022/03/05 10:52:19;;;;;;;;;;;22.50;51.50;;;;;;5119838;28;916;-45
2022/03/05 10:54:48;;;;;;;;;;;22.50;50.10;;;;;;5119459;28;1007;-44
2022/03/05 10:57:15;;;;;;;;;;;22.50;50.20;;;;;;5119219;28;1909;-43
2022/03/05 10:59:43;;;;;;;;;;;22.40;50.30;;;;;;5118387;28;1214;-44
2022/03/05 11:02:11;;;;;;;;;;;22.30;50.40;;;;;;5118983;28;980;-43
2022/03/05 11:04:39;;;;;;;;;;;22.30;51.40;;;;;;5118521;28;947;-44
2022/03/05 11:07:07;;;;;;;;;;;22.30;50.50;;;;;;5117515;28;1015;-41
2022/03/05 11:09:36;;;;;;;;;;;22.30;51.00;;;;;;5117489;28;1015;-41
2022/03/05 11:12:04;;;;;;;;;;;22.40;50.60;;;;;;5118133;28;1003;-41
2022/03/05 11:14:31;;;;;;;;;;;22.40;50.30;;;;;;5116579;28;1066;-41
2022/03/05 11:16:58;;;;;;;;;;;22.40;50.60;;;;;;5115800;28;1972;-41
2022/03/05 11:19:25;;;;;;;;;;;22.40;50.60;;;;;;5117246;28;1026;-41
2022/03/05 11:21:52;;;;;;;;;;;22.40;50.50;;;;;;5118100;28;1001;-41
2022/03/05 11:24:20;;;;;;;;;;;22.50;51.00;;;;;;5119363;28;911;-41
2022/03/05 11:26:47;;;;;;;;;;;22.50;49.90;;;;;;5119117;28;1019;-42
2022/03/05 11:29:18;;;;;;;;;;;22.50;49.80;;;;;;5118364;28;1005;-41
2022/03/05 11:31:45;;;;;;;;;;;22.40;49.50;;;;;;5118662;28;1165;-41
2022/03/05 11:34:13;;;;;;;;;;;22.40;49.50;;;;;;5118965;28;935;-41
2022/03/05 11:36:41;;;;;;;;;;;22.40;49.50;;;;;;5118207;28;1961;-41
2022/03/05 11:39:10;;;;;;;;;;;22.50;49.80;;;;;;5119034;28;988;-41
2022/03/05 11:41:57;;;;;;;;;;;22.50;49.30;;;;;;5117545;28;924;-42
2022/03/05 11:44:28;;;;;;;;;;;22.40;49.00;;;;;;5118201;28;1023;-44
2022/03/05 11:47:14;;;;;;;;;;;22.40;49.00;;;;;;5117203;28;976;-41
2022/03/05 11:49:56;;;;;;;;;;;22.50;49.10;;;;;;5117847;28;957;-41
2022/03/05 11:52:23;;;;;;;;;;;22.50;49.00;;;;;;5116223;28;1864;-42
2022/03/05 11:55:05;;;;;;;;;;;22.40;48.50;;;;;;5116983;28;834;-50
2022/03/05 11:57:31;;;;;;;;;;;22.50;49.10;;;;;;5116989;28;1905;-48
2022/03/05 12:00:03;;;;;;;;;;;22.60;49.10;;;;;;5117851;28;1052;-50
2022/03/05 12:02:39;;;;;;;;;;;22.60;49.40;;;;;;5117185;28;1023;-51
2022/03/05 12:05:06;;;;;;;;;;;22.60;49.20;;;;;;5117538;28;943;-54
2022/03/05 12:07:36;;;;;;;;;;;22.50;49.10;;;;;;5117973;28;1444;-50
2022/03/05 12:10:11;;;;;;;;;;;22.50;49.10;;;;;;5120117;28;2232;-43
2022/03/05 12:12:52;;;;;;;;;;;22.60;48.80;;;;;;5117910;28;919;-41
2022/03/05 12:15:25;;;;;;;;;;;22.60;48.30;;;;;;5117290;28;944;-41
2022/03/05 12:17:52;;;;;;;;;;;22.70;48.40;;;;;;5117327;28;1909;-45
2022/03/05 12:20:20;;;;;;;;;;;22.70;48.40;;;;;;5117556;28;1028;-43
2022/03/05 12:22:52;;;;;;;;;;;22.70;48.90;;;;;;5117588;28;1114;-41
2022/03/05 12:25:19;;;;;;;;;;;22.70;48.50;;;;;;5118050;28;948;-42
2022/03/05 12:27:47;;;;;;;;;;;22.80;48.40;;;;;;5116641;28;1010;-42
2022/03/05 12:30:15;;;;;;;;;;;22.70;48.40;;;;;;5117523;28;1003;-42
2022/03/05 12:32:45;;;;;;;;;;;22.70;48.50;;;;;;5117628;28;1029;-43
2022/03/05 12:35:12;;;;;;;;;;;22.90;48.60;;;;;;5117382;28;947;-42
2022/03/05 12:37:39;;;;;;;;;;;22.80;48.40;;;;;;5116036;28;1922;-43
2022/03/05 12:40:06;;;;;;;;;;;22.70;48.00;;;;;;5116368;28;985;-43
2022/03/05 12:42:37;;;;;;;;;;;22.70;48.20;;;;;;5115941;28;1027;-42
2022/03/05 12:45:04;;;;;;;;;;;22.70;48.20;;;;;;5117546;28;991;-42
2022/03/05 12:47:31;;;;;;;;;;;22.70;48.20;;;;;;5045681;28;1522;-42
2022/03/05 12:50:17;;;;;;;;;;;22.70;48.40;;;;;;5013058;28;1721;-44
2022/03/05 12:52:53;;;;;;;;;;;22.80;48.30;;;;;;5012484;28;1730;-44
2022/03/05 12:55:20;;;;;;;;;;;22.70;48.00;;;;;;5010291;28;986;-43
2022/03/05 12:57:47;;;;;;;;;;;22.70;47.80;;;;;;5011103;28;1890;-42
2022/03/05 13:00:14;;;;;;;;;;;22.70;47.90;;;;;;5011849;28;991;-42
2022/03/05 13:02:41;;;;;;;;;;;22.70;47.80;;;;;;5009730;28;1019;-44
2022/03/05 13:05:13;;;;;;;;;;;22.70;47.80;;;;;;5011499;28;967;-43
2022/03/05 13:07:40;;;;;;;;;;;22.70;47.80;;;;;;5012678;28;1166;-41
2022/03/05 13:10:07;;;;;;;;;;;22.70;47.90;;;;;;5012435;28;994;-43
2022/03/05 13:12:36;;;;;;;;;;;22.70;47.90;;;;;;5013422;28;936;-42
2022/03/05 13:15:03;;;;;;;;;;;22.60;47.90;;;;;;5011720;28;920;-43
2022/03/05 13:17:30;;;;;;;;;;;22.70;48.00;;;;;;5011943;28;1983;-43
2022/03/05 13:19:58;;;;;;;;;;;22.70;47.90;;;;;;5012199;28;939;-43
2022/03/05 13:22:26;;;;;;;;;;;22.70;48.00;;;;;;5012883;28;978;-45
2022/03/05 13:24:53;;;;;;;;;;;22.60;48.00;;;;;;5012486;28;931;-45
2022/03/05 13:27:23;;;;;;;;;;;22.70;47.90;;;;;;5011639;28;894;-44
2022/03/05 13:29:51;;;;;;;;;;;22.70;47.80;;;;;;5011799;28;1000;-43
2022/03/05 13:32:18;;;;;;;;;;;22.70;47.80;;;;;;5012580;28;988;-44
2022/03/05 13:34:45;;;;;;;;;;;22.80;47.80;;;;;;5012444;28;1027;-42
2022/03/05 13:37:12;;;;;;;;;;;22.80;47.80;;;;;;5013352;28;1902;-43
2022/03/05 13:39:40;;;;;;;;;;;22.80;47.80;;;;;;5013297;28;924;-43
2022/03/05 13:42:11;;;;;;;;;;;22.80;47.70;;;;;;5012739;28;1769;-45
2022/03/05 13:44:38;;;;;;;;;;;22.80;47.70;;;;;;5012318;28;1062;-43
2022/03/05 13:47:05;;;;;;;;;;;22.80;47.60;;;;;;5012237;28;1035;-45
2022/03/05 13:49:32;;;;;;;;;;;22.90;47.70;;;;;;5012294;28;1051;-43
2022/03/05 13:52:01;;;;;;;;;;;22.80;47.60;;;;;;5013127;28;1007;-43
2022/03/05 13:54:32;;;;;;;;;;;22.80;48.00;;;;;;5012452;28;976;-43
2022/03/05 13:57:01;;;;;;;;;;;22.90;48.20;;;;;;5011556;28;1973;-42
2022/03/05 13:59:36;;;;;;;;;;;23.00;48.20;;;;;;5012268;28;1228;-43
2022/03/05 14:02:02;;;;;;;;;;;23.10;48.00;;;;;;5010542;28;975;-42
2022/03/05 14:04:29;;;;;;;;;;;23.00;48.00;;;;;;5009399;28;979;-42
2022/03/05 14:06:57;;;;;;;;;;;23.00;48.20;;;;;;5009607;28;1325;-42
2022/03/05 14:09:26;;;;;;;;;;;22.90;48.20;;;;;;5011407;28;1810;-42
2022/03/05 14:12:08;;;;;;;;;;;22.90;48.30;;;;;;5011339;28;1205;-41
2022/03/05 14:14:36;;;;;;;;;;;22.90;48.40;;;;;;5012728;28;1154;-43
2022/03/05 14:17:03;;;;;;;;;;;23.00;48.50;;;;;;5013089;28;1979;-42
2022/03/05 14:19:30;;;;;;;;;;;23.00;48.50;;;;;;5014626;28;972;-42
2022/03/05 14:22:09;;;;;;;;;;;23.00;48.40;;;;;;5014230;28;1031;-41
2022/03/05 14:24:37;;;;;;;;;;;22.90;48.50;;;;;;5015695;28;935;-43
2022/03/05 14:27:15;;;;;;;;;;;23.00;48.50;;;;;;5015663;28;1015;-43
2022/03/05 14:29:42;;;;;;;;;;;23.00;48.50;;;;;;5015968;28;940;-43
2022/03/05 14:32:09;;;;;;;;;;;23.00;48.50;;;;;;5016079;28;1016;-44
2022/03/05 14:34:36;;;;;;;;;;;23.00;48.50;;;;;;5015995;28;975;-41
2022/03/05 14:37:03;;;;;;;;;;;23.10;48.50;;;;;;5014826;28;1902;-42
2022/03/05 14:39:32;;;;;;;;;;;23.10;48.50;;;;;;5015692;28;1027;-41
2022/03/05 14:41:59;;;;;;;;;;;23.10;48.30;;;;;;5016009;28;1004;-40